航空気象通報

ウインドサーファーのための航空気象通報による風予報です。

8/1-8/3の航空気象通報

2017年07月31日 23時50分08秒 | TAF
羽田空港
TAF RJTT 311105Z 3112/0118 19010KT 9999 FEW010 SCT040
BECMG 3120/3122 02008KT
TEMPO 3121/3123 FEW005 BKN008
TEMPO 3123/0103 3000 TSRA BR FEW003 BKN005 FEW015CB
TEMPO 0103/0106 4000 -SHRA BR FEW005 BKN008
日本時間31日21時-1日05時:190度から10ノットの風
05-07時:風が変化
07時-2日03時:020度から8ノットの風

但し、1日06-08時の間:ときどき
但し、1日08-12時の間:ときどき
但し、1日12-15時の間:ときどき

静岡空港
TAF RJNS 311105Z 3112/0118 28006KT 8000 FEW008 BKN015
TEMPO 3115/3122 FEW005 BKN008
BECMG 0100/0103 10005KT
TEMPO 0103/0109 3000 TSRA BR FEW005 BKN008 FEW020CB
TEMPO 0109/0118 4000 -SHRA BR FEW003 BKN005
BECMG 0112/0115 35004KT
日本時間31日21時-1日09時:280度から6ノットの風
09-12時:風が変化
12-21時:100度から5ノットの風
21-24時:風が変化
2日00-03時:350度から4ノットの風

但し、1日12-18時の間:ときどき
但し、1日18時-2日03時の間:ときどき

福岡空港
TAF RJFF 311106Z 3112/0118 28006KT 9999 FEW015 SCT030
BECMG 3112/3114 16004KT
BECMG 3122/0100 35007KT
日本時間31日21時:280度から6ノットの風
21-23時:風が変化
23時-1日07時:160度から4ノットの風
07-09時:風が変化
09時-2日03時:350度から7ノットの風


那覇空港
TAF ROAH 311110Z 3112/0118 13006KT 9999 FEW020
BECMG 3120/3122 07005KT
日本時間31日21時-1日05時:130度から6ノットの風
05-07時:風が変化
07時-2日03時:070度から5ノットの風


石垣空港
TAF ROIG 311113Z 3112/0118 19012KT 9999 FEW008
日本時間31日21時-2日03時:190度から12ノットの風


マウイのカフルイ空港
PHOG 311122Z 3112/0112 05008KT P6SM FEW035 SCT050
FM312000 05018G26KT P6SM FEW035 SCT050
FM010500 05008KT P6SM VCSH FEW035 SCT050 AMD LTD TO VIS AND WIND TIL 311600
ハワイ時間31日02-10時:050度から8ノットの風
10-19時:050度から18ノット、突風26ノット
19時-1日02時:050度から8ノットの風


サイパン空港
TAF PGSN 311124Z 3112/0112 15007KT P6SM VCSH SCT017 SCT030
マリアナ時間31日22時-1日22時:150度から7ノットの風

コメント
この記事をはてなブックマークに追加

7/30-8/1の航空気象通報

2017年07月30日 22時08分22秒 | TAF
羽田空港
TAF RJTT 301105Z 3012/3118 08006KT 9999 FEW010 SCT015
TEMPO 3016/3019 FEW005 BKN008
BECMG 3018/3020 05005KT
TEMPO 3019/3022 4000 BR FEW005 BKN008
BECMG 3022/3100 09006KT
BECMG 3103/3106 18014KT
日本時間30日21時-31日03時:080度から6ノットの風
03-05時:風が変化
05-07時:050度から5ノットの風
07-09時:風が変化
09-12時:090度から6ノットの風
12-15時:風が変化
15時-1日03時:180度から14ノットの風

但し、31日01-04時の間:ときどき
但し、31日04-07時の間:ときどき

静岡空港
TAF RJNS 301105Z 3012/3118 31004KT 9999 FEW015 BKN040
BECMG 3021/3023 16005KT
BECMG 3109/3112 24005KT
TEMPO 3115/3118 FEW005 BKN008
日本時間30日21時-31日06時:310度から4ノットの風
06-08時:風が変化
08-18時:160度から5ノットの風
18-21時:風が変化
21時-1日03時:240度から5ノットの風


福岡空港
TAF RJFF 301106Z 3012/3118 36005KT 9999 FEW035
BECMG 3013/3015 15005KT
BECMG 3100/3103 32010KT
BECMG 3115/3118 16004KT
日本時間30日21-22時:360度から5ノットの風
22-24時:風が変化
31日00-09時:150度から5ノットの風
09-12時:風が変化
12-24時:320度から10ノットの風
1日00-03時:風が変化
03時:160度から4ノットの風


那覇空港
TAF ROAH 301105Z 3012/3118 15010KT 9999 FEW020
日本時間30日21時-1日03時:150度から10ノットの風


石垣空港
TAF ROIG 301107Z 3012/3118 18017KT 9999 FEW010 SCT040
日本時間30日21時-1日03時:180度から17ノットの風


マウイのカフルイ空港
PHOG 301138Z 3012/3112 05010KT P6SM FEW035 SCT050
FM302000 05016G26KT P6SM FEW035 SCT050
FM310500 05010KT P6SM FEW035 SCT050 AMD LTD TO VIS AND WIND TIL 301600
ハワイ時間30日02-10時:050度から10ノットの風
10-19時:050度から16ノット、突風26ノット
19時-31日02時:050度から10ノットの風


サイパン空港
TAF PGSN 301126Z 3012/3112 23009KT P6SM VCSH SCT015 SCT030 BKN090
マリアナ時間30日22時-31日22時:230度から9ノットの風

コメント
この記事をはてなブックマークに追加

7/29-7/31の航空気象通報

2017年07月29日 23時46分17秒 | TAF
羽田空港
TAF RJTT 291105Z 2912/3018 09012KT 8000 FEW008 BKN015
TEMPO 2912/2914 4000 SHRA
BECMG 2912/2914 05010KT
TEMPO 2916/2921 4000 -SHRA BR FEW005 BKN008
BECMG 3003/3006 08008KT
日本時間29日21時:090度から12ノットの風
21-23時:風が変化
23時-30日12時:050度から10ノットの風
12-15時:風が変化
15時-31日03時:080度から8ノットの風

但し、30日01-06時の間:ときどき

静岡空港
TAF RJNS 291116Z 2912/3018 34004KT 8000 FEW003 SCT008 BKN030
TEMPO 2912/2918 4000 -SHRA BR FEW003 BKN008
BECMG 3003/3006 14006KT
BECMG 3012/3015 32004KT
日本時間29日21時-30日12時:340度から4ノットの風
12-15時:風が変化
15-21時:140度から6ノットの風
21-24時:風が変化
31日00-03時:320度から4ノットの風

但し、29日21時-30日03時の間:ときどき

福岡空港
TAF RJFF 291106Z 2912/3018 34005KT 9999 FEW020
BECMG 2914/2916 15004KT
BECMG 2922/3000 32010KT
BECMG 3015/3018 15004KT
日本時間29日21-23時:340度から5ノットの風
23時-30日01時:風が変化
01-07時:150度から4ノットの風
07-09時:風が変化
09-24時:320度から10ノットの風
31日00-03時:風が変化
03時:150度から4ノットの風


那覇空港
TAF ROAH 291107Z 2912/3018 15009KT 9999 FEW015
TEMPO 3000/3009 SHRA FEW015 FEW020CB SCT025
日本時間29日21時-31日03時:150度から9ノットの風

但し、30日09-18時の間:ときどき

石垣空港
TAF AMD ROIG 291325Z 2913/3018 16017KT 9999 FEW015 BKN030
TEMPO 2913/2916 16025G35KT 3000 TSRA FEW008 FEW020CB BKN025
日本時間29日21時-31日03時:160度から17ノットの風
但し、29日22時-30日01時の間:ときどき160度から25ノット、突風35ノット

但し、29日22時-30日01時の間:ときどき

マウイのカフルイ空港
PHOG 291251Z 2913/3012 06009KT P6SM VCSH FEW030 SCT045
FM292000 05016G24KT P6SM FEW030 SCT050
FM300800 05009KT P6SM FEW030 SCT050 AMD LTD TO VIS AND WIND TIL 291600
ハワイ時間29日02-10時:060度から9ノットの風
10-22時:050度から16ノット、突風24ノット
22時-30日02時:050度から9ノットの風


サイパン空港
PGSN 291242Z 2913/3012 25010KT P6SM VCSH FEW020 SCT050 BKN080
TEMPO 2913/2916 30014G26KT 2SM +SHRA SCT011 BKN025 OVC040
マリアナ時間29日23時-30日22時:250度から10ノットの風
但し、29日23時-30日02時の間:ときどき300度から14ノット、突風26ノット

但し、29日23時-30日02時の間:ときどき
コメント
この記事をはてなブックマークに追加

7/28-7/30の航空気象通報

2017年07月29日 00時55分47秒 | TAF
羽田空港
TAF RJTT 281109Z 2812/2918 11010KT 9999 FEW010 BKN020
BECMG 2816/2818 04006KT
TEMPO 2818/2823 FEW005 BKN008
BECMG 2900/2903 10012KT
BECMG 2915/2918 05008KT
日本時間28日21時-29日01時:110度から10ノットの風
01-03時:風が変化
03-09時:040度から6ノットの風
09-12時:風が変化
12-24時:100度から12ノットの風
30日00-03時:風が変化
03時:050度から8ノットの風


静岡空港
TAF RJNS 281105Z 2812/2918 32004KT 9999 FEW015 BKN080
BECMG 2900/2903 15006KT
BECMG 2912/2915 35004KT
TEMPO 2912/2918 FEW005 BKN008
日本時間28日21時-29日09時:320度から4ノットの風
09-12時:風が変化
12-21時:150度から6ノットの風
21-24時:風が変化
30日00-03時:350度から4ノットの風


福岡空港
TAF RJFF 281107Z 2812/2918 34005KT 9000 FEW010 SCT020 BKN030
BECMG 2815/2817 15003KT
BECMG 2822/2900 33011KT
BECMG 2915/2918 15003KT
日本時間28日21-24時:340度から5ノットの風
29日00-02時:風が変化
02-07時:150度から3ノットの風
07-09時:風が変化
09-24時:330度から11ノットの風
30日00-03時:風が変化
03時:150度から3ノットの風


那覇空港
TAF ROAH 281107Z 2812/2918 10006KT 9999 FEW020
TEMPO 2903/2909 SHRA FEW008 SCT015 FEW020CB BKN030
日本時間28日21時-30日03時:100度から6ノットの風

但し、29日12-18時の間:ときどき

石垣空港
TAF ROIG 281111Z 2812/2918 08020KT 9999 FEW015 SCT030
TEMPO 2900/2906 10025G35KT SHRA FEW008 SCT015 FEW020CB BKN030
TEMPO 2906/2909 12025G35KT 4000 SHRA FEW008 SCT015 FEW020CB BKN030
BECMG 2909/2912 14018KT
日本時間28日21時-29日18時:080度から20ノットの風
但し、29日09-15時の間:ときどき100度から25ノット、突風35ノット
但し、15-18時の間:ときどき120度から25ノット、突風35ノット
18-21時:風が変化
21時-30日03時:140度から18ノットの風

但し、29日09-18時の間:ときどき

マウイのカフルイ空港
PHOG 281130Z 2812/2912 05008KT P6SM VCSH SCT025 SCT050
FM282000 05016G24KT P6SM VCSH SCT030 BKN050
TEMPO 2821/2901 4SM SHRA BR BKN025 OVC050
FM290600 05009KT P6SM VCSH SCT025 BKN045 AMD LTD TO VIS AND WIND TIL 281600
ハワイ時間28日02-10時:050度から8ノットの風

10-20時:050度から16ノット、突風24ノット
20時-29日02時:050度から9ノットの風


サイパン空港
TAF PGSN 281136Z 2812/2912 26005KT P6SM VCSH SCT020 SCT050 BKN120
マリアナ時間28日22時-30日22時:260度から5ノットの風
コメント
この記事をはてなブックマークに追加

7/25-7/27の航空気象通報

2017年07月25日 23時05分32秒 | TAF
羽田空港
TAF RJTT 251105Z 2512/2618 20008KT 9000 FEW010 BKN015
BECMG 2517/2519 34006KT
TEMPO 2517/2600 4000 -SHRA BR FEW005 BKN008
BECMG 2521/2523 04010KT
日本時間25日21時-26日02時:200度から8ノットの風
02-04時:風が変化
04-06時:340度から6ノットの風
06-08時:風が変化
08時-27日03時:040度から10ノットの風


静岡空港
TAF RJNS 251105Z 2512/2618 25010KT 9999 FEW008 BKN012
TEMPO 2512/2518 FEW003 BKN005
TEMPO 2518/2600 FEW005 BKN008
BECMG 2600/2603 18008KT
TEMPO 2606/2609 3000 SHRA BR FEW005 BKN008
TEMPO 2609/2612 4000 -SHRA BR FEW005 BKN008
日本時間25日21時-26日09時:250度から10ノットの風
09-12時:風が変化
12時-27日03時:180度から8ノットの風

但し、26日15-21時の間:ときどき

福岡空港
TAF RJFF 251105Z 2512/2618 33005KT 8000 FEW008 BKN015 BKN030
TEMPO 2512/2518 FEW005 BKN008 BKN010
BECMG 2516/2518 14003KT
BECMG 2600/2603 32010KT
TEMPO 2603/2609 -TSRA FEW015 SCT030 BKN035CB BKN040
BECMG 2609/2612 14005KT
日本時間25日21時-26日01時:330度から5ノットの風
01-03時:風が変化
03-09時:140度から3ノットの風
09-12時:風が変化
12-18時:320度から10ノットの風
18-21時:風が変化
21時-27日03時:140度から5ノットの風

但し、26日12-18時の間:ときどき

那覇空港
TAF ROAH 251109Z 2512/2618 01005KT 9999 FEW015
TEMPO 2603/2609 SHRA FEW010 SCT020 FEW025CB
BECMG 2612/2615 15003KT
日本時間25日21時-26日21時:010度から5ノットの風
21-24時:風が変化
27日00-03時:150度から3ノットの風

但し、26日12-18時の間:ときどき

石垣空港
TAF ROIG 251112Z 2512/2618 29003KT 9999 FEW015 SCT030
TEMPO 2603/2609 SHRA
日本時間25日21時-27日03時:290度から3ノットの風

但し、26日12-18時の間:ときどき

マウイのカフルイ空港
PHOG 251123Z 2512/2612 06009KT P6SM FEW030 SCT060
FM252000 05017G25KT P6SM FEW030 FEW050
FM260600 05011G18KT P6SM FEW030 SCT050 AMD LTD TO VIS AND WIND TIL 251600
ハワイ時間25日02-10時:060度から9ノットの風
10-20時:050度から17ノット、突風25ノット
20時-26日02時:050度から11ノット、突風18ノット


サイパン空港
TAF PGSN 251132Z 2512/2612 18010KT P6SM VCSH SCT018 SCT040 SCT140
マリアナ時間25日22時-26日22時:180度から10ノットの風

コメント
この記事をはてなブックマークに追加